CheckWX is a tool to help pilots better visualize weather data.  It is not intended as a substitute for an official pre-flight weather briefing.

04:17:45 UTC

CYOD METAR
CFB Cold Lake Airport
Cold Lake, Canada
Current

1 hour ago

CYOD 270300Z 27002KT 15SM FEW040CB FEW100 BKN250 17/12 A3000 RMK CB1AC2CI5 CB DIST NE MOVG SE DIST LTNG NE SLP165
Observed
Jun-27 @ 03:00 UTC
Wind
  • 270° at 2 KTS
Visibility
15 SM
Flight Rules
VFR
Cloud Levels
  • Few at 4,000' AGL
  • Few at 10,000' AGL
  • Broken at 25,000' AGL
Temperature
17°C / 63°F
Dewpoint
12°C / 54°F
Humidity
73%
Altimeter
30" Hg
Pressure
1015.92 hPa
Previous

2 hours ago

CYOD 270200Z 25002KT 15SM FEW040CB FEW100 BKN220 18/12 A2999 RMK CB1AC2CI6 DIST CB ALQDS MOVG SE SLP163
Observed
Jun-27 @ 02:00 UTC
Wind
  • 250° at 2 KTS
Visibility
15 SM
Flight Rules
VFR
Cloud Levels
  • Few at 4,000' AGL
  • Few at 10,000' AGL
  • Broken at 22,000' AGL
Temperature
18°C / 64°F
Dewpoint
12°C / 54°F
Humidity
68%
Altimeter
29.99" Hg
Pressure
1015.62 hPa
Previous

3 hours ago

CYOD 270100Z 24005KT 15SM FEW040CB SCT100 BKN250 19/11 A2997 RMK CB1AC3CI4 DIST CB ALQDS MOVG SE SLP158
Observed
Jun-27 @ 01:00 UTC
Wind
  • 240° at 5 KTS
Visibility
15 SM
Flight Rules
VFR
Cloud Levels
  • Few at 4,000' AGL
  • Scattered at 10,000' AGL
  • Broken at 25,000' AGL
Temperature
19°C / 66°F
Dewpoint
11°C / 52°F
Humidity
60%
Altimeter
29.97" Hg
Pressure
1014.92 hPa